Time;durP1;ratioP1;P1;durP2;ratioP2;P2;SDS_P1;SDS_P2;PMS_P1;PMS_P2;Temp;Humidity;BMP_temperature;BMP_pressure;BME280_temperature;BME280_humidity;BME280_pressure;Samples;Min_cycle;Max_cycle;Signal;HPM_P1;HPM_P2
2022/04/28 00:00:42;;;;;;;;;;;6.10;99.90;;;;;;5113086;28;20006;-75
2022/04/28 00:03:09;;;;;;;;;;;6.00;99.90;;;;;;5112188;28;19907;-75
2022/04/28 00:05:35;;;;;;;;;;;6.00;99.90;;;;;;5113428;28;20355;-74
2022/04/28 00:08:01;;;;;;;;;;;6.00;99.90;;;;;;5112679;28;20018;-74
2022/04/28 00:10:26;;;;;;;;;;;6.00;99.90;;;;;;5113594;28;19908;-74
2022/04/28 00:12:52;;;;;;;;;;;6.00;99.90;;;;;;5113511;28;19908;-74
2022/04/28 00:15:18;;;;;;;;;;;5.90;99.90;;;;;;5112921;28;19957;-74
2022/04/28 00:17:43;;;;;;;;;;;5.90;99.90;;;;;;5113470;28;19913;-74
2022/04/28 00:20:09;;;;;;;;;;;5.90;99.90;;;;;;5112825;28;19908;-74
2022/04/28 00:22:35;;;;;;;;;;;5.90;99.90;;;;;;5113143;28;19912;-73
2022/04/28 00:25:00;;;;;;;;;;;5.90;99.90;;;;;;5112872;28;19908;-74
2022/04/28 00:27:26;;;;;;;;;;;5.90;99.90;;;;;;5112128;28;19923;-73
2022/04/28 00:29:51;;;;;;;;;;;5.90;99.90;;;;;;5113347;28;19908;-74
2022/04/28 00:32:17;;;;;;;;;;;5.80;99.90;;;;;;5112571;28;20497;-74
2022/04/28 00:34:43;;;;;;;;;;;5.70;99.90;;;;;;5113296;28;19907;-74
2022/04/28 00:37:09;;;;;;;;;;;5.70;99.90;;;;;;5113016;28;20096;-74
2022/04/28 00:39:36;;;;;;;;;;;5.70;99.90;;;;;;5112941;28;19908;-74
2022/04/28 00:42:01;;;;;;;;;;;5.70;99.90;;;;;;5112714;28;19947;-74
2022/04/28 00:44:27;;;;;;;;;;;5.60;99.90;;;;;;5112820;28;20000;-74
2022/04/28 00:46:52;;;;;;;;;;;5.60;99.90;;;;;;5112959;28;20065;-75
2022/04/28 00:52:02;;;;;;;;;;;5.70;99.90;;;;;;5116513;28;19931;-74
2022/04/28 00:54:28;;;;;;;;;;;5.70;99.90;;;;;;5115803;28;20352;-74
2022/04/28 00:56:54;;;;;;;;;;;5.80;99.90;;;;;;5130767;27;19942;-74
2022/04/28 00:59:20;;;;;;;;;;;5.80;99.90;;;;;;5136746;27;19911;-74
2022/04/28 01:01:46;;;;;;;;;;;5.70;99.90;;;;;;5137511;27;19919;-74
2022/04/28 01:04:11;;;;;;;;;;;5.70;99.90;;;;;;5136941;27;19914;-74
2022/04/28 01:06:39;;;;;;;;;;;5.70;99.90;;;;;;5137114;27;20253;-74
2022/04/28 01:09:05;;;;;;;;;;;5.70;99.90;;;;;;5136395;27;19918;-74
2022/04/28 01:11:31;;;;;;;;;;;5.70;99.90;;;;;;5137324;27;19908;-74
2022/04/28 01:13:57;;;;;;;;;;;5.70;99.90;;;;;;5137594;27;19908;-74
2022/04/28 01:16:22;;;;;;;;;;;5.70;99.90;;;;;;5136655;27;20361;-74
2022/04/28 01:18:48;;;;;;;;;;;5.60;99.90;;;;;;5137092;27;19952;-74
2022/04/28 01:21:13;;;;;;;;;;;5.60;99.90;;;;;;5136621;27;20344;-74
2022/04/28 01:23:39;;;;;;;;;;;5.50;99.90;;;;;;5118577;27;19907;-73
2022/04/28 01:26:05;;;;;;;;;;;5.60;99.90;;;;;;5136221;27;19912;-74
2022/04/28 01:28:31;;;;;;;;;;;5.50;99.90;;;;;;5137097;27;20264;-74
2022/04/28 01:30:58;;;;;;;;;;;5.40;99.90;;;;;;5136692;27;20023;-74
2022/04/28 01:33:24;;;;;;;;;;;5.40;99.90;;;;;;5136559;27;19908;-74
2022/04/28 01:35:49;;;;;;;;;;;5.40;99.90;;;;;;5136824;27;19930;-73
2022/04/28 01:38:15;;;;;;;;;;;5.50;99.90;;;;;;5136269;27;19964;-74
2022/04/28 01:40:40;;;;;;;;;;;5.50;99.90;;;;;;5136307;27;19908;-74
2022/04/28 01:43:06;;;;;;;;;;;5.50;99.90;;;;;;5135941;27;19913;-74
2022/04/28 01:45:32;;;;;;;;;;;5.40;99.90;;;;;;5136855;27;19914;-74
2022/04/28 01:47:57;;;;;;;;;;;5.40;99.90;;;;;;5136577;27;19915;-74
2022/04/28 01:50:23;;;;;;;;;;;5.40;99.90;;;;;;5135819;27;19903;-74
2022/04/28 01:55:33;;;;;;;;;;;5.60;99.90;;;;;;5136339;27;19915;-73
2022/04/28 01:57:58;;;;;;;;;;;5.50;99.90;;;;;;5136915;27;19934;-74
2022/04/28 02:00:26;;;;;;;;;;;5.50;99.90;;;;;;5133981;27;20114;-74
2022/04/28 02:02:52;;;;;;;;;;;5.40;99.90;;;;;;5136122;27;20272;-73
2022/04/28 02:05:17;;;;;;;;;;;5.50;99.90;;;;;;5135783;27;19907;-74
2022/04/28 02:07:44;;;;;;;;;;;5.40;99.90;;;;;;5135916;27;19961;-74
2022/04/28 02:10:10;;;;;;;;;;;5.30;99.90;;;;;;5135297;27;19911;-74
2022/04/28 02:12:35;;;;;;;;;;;5.20;99.90;;;;;;5135812;27;20018;-74
2022/04/28 02:15:01;;;;;;;;;;;5.30;99.90;;;;;;5135894;27;19914;-74
2022/04/28 02:17:27;;;;;;;;;;;5.30;99.90;;;;;;5135558;27;19915;-74
2022/04/28 02:19:53;;;;;;;;;;;5.20;99.90;;;;;;5135841;27;19965;-74
2022/04/28 02:22:18;;;;;;;;;;;5.20;99.90;;;;;;5135371;27;19908;-74
2022/04/28 02:24:44;;;;;;;;;;;5.20;99.90;;;;;;5135649;27;20391;-74
2022/04/28 02:27:10;;;;;;;;;;;5.10;99.90;;;;;;5135230;27;19912;-74
2022/04/28 02:29:36;;;;;;;;;;;5.00;99.90;;;;;;5135551;27;19992;-74
2022/04/28 02:32:02;;;;;;;;;;;5.10;99.90;;;;;;5135601;27;19929;-74
2022/04/28 02:34:28;;;;;;;;;;;5.10;99.90;;;;;;5135156;27;20068;-74
2022/04/28 02:36:53;;;;;;;;;;;5.20;99.90;;;;;;5135312;27;20383;-74
2022/04/28 02:39:19;;;;;;;;;;;5.20;99.90;;;;;;5134935;27;19914;-74
2022/04/28 02:41:46;;;;;;;;;;;5.20;99.90;;;;;;5135329;27;20372;-74
2022/04/28 02:44:14;;;;;;;;;;;5.30;99.90;;;;;;5134705;27;19908;-74
2022/04/28 02:46:42;;;;;;;;;;;5.40;99.90;;;;;;5135238;27;19984;-74
2022/04/28 02:49:11;;;;;;;;;;;5.30;99.90;;;;;;5134976;27;19942;-74
2022/04/28 02:51:36;;;;;;;;;;;5.20;99.90;;;;;;5135143;27;19907;-74
2022/04/28 02:54:02;;;;;;;;;;;5.20;99.90;;;;;;5135378;27;19908;-74
2022/04/28 02:56:28;;;;;;;;;;;5.10;99.90;;;;;;5134566;27;19915;-74
2022/04/28 02:58:54;;;;;;;;;;;5.00;99.90;;;;;;5116542;27;19912;-74
2022/04/28 03:01:20;;;;;;;;;;;5.10;99.90;;;;;;5134277;27;19990;-74
2022/04/28 03:03:45;;;;;;;;;;;5.10;99.90;;;;;;5134657;27;20005;-74
2022/04/28 03:11:41;;;;;;;;;;;4.90;99.90;;;;;;5134472;27;19930;-74
2022/04/28 03:14:07;;;;;;;;;;;4.90;99.90;;;;;;5135133;27;19914;-74
2022/04/28 03:16:33;;;;;;;;;;;4.80;99.90;;;;;;5133564;27;20500;-74
2022/04/28 03:18:58;;;;;;;;;;;4.80;99.90;;;;;;5134855;27;19908;-74
2022/04/28 03:21:24;;;;;;;;;;;4.80;99.90;;;;;;5134267;27;19907;-74
2022/04/28 03:23:50;;;;;;;;;;;4.80;99.90;;;;;;5134602;27;20367;-74
2022/04/28 03:26:16;;;;;;;;;;;4.80;99.90;;;;;;5134035;27;19931;-74
2022/04/28 03:28:42;;;;;;;;;;;4.90;99.90;;;;;;5134709;27;19916;-74
2022/04/28 03:31:08;;;;;;;;;;;5.00;99.90;;;;;;5134318;27;20010;-74
2022/04/28 03:33:34;;;;;;;;;;;4.90;99.90;;;;;;5133789;27;19915;-74
2022/04/28 03:36:00;;;;;;;;;;;5.00;99.90;;;;;;5134243;27;20276;-74
2022/04/28 03:38:25;;;;;;;;;;;5.00;99.90;;;;;;5133825;27;20272;-74
2022/04/28 03:40:51;;;;;;;;;;;4.90;99.90;;;;;;5134076;27;20002;-74
2022/04/28 03:43:17;;;;;;;;;;;4.90;99.90;;;;;;5133618;27;19922;-74
2022/04/28 03:45:43;;;;;;;;;;;4.90;99.90;;;;;;5134281;27;20356;-74
2022/04/28 03:48:09;;;;;;;;;;;4.90;99.90;;;;;;5134083;27;20376;-74
2022/04/28 03:50:36;;;;;;;;;;;4.90;99.90;;;;;;5133719;27;19931;-74
2022/04/28 03:53:02;;;;;;;;;;;4.90;99.90;;;;;;5134223;27;19961;-74
2022/04/28 03:55:27;;;;;;;;;;;5.00;99.90;;;;;;5133691;27;19907;-74
2022/04/28 03:57:53;;;;;;;;;;;5.00;99.90;;;;;;5133665;27;19919;-74
2022/04/28 04:00:19;;;;;;;;;;;5.00;99.90;;;;;;5133614;27;19907;-74
2022/04/28 04:02:45;;;;;;;;;;;5.00;99.90;;;;;;5134118;27;19908;-74
2022/04/28 04:05:11;;;;;;;;;;;5.00;99.90;;;;;;5133868;27;19952;-74
2022/04/28 04:07:39;;;;;;;;;;;4.90;99.90;;;;;;5115156;28;19976;-74
2022/04/28 04:10:06;;;;;;;;;;;4.90;99.90;;;;;;5134023;27;19922;-74
2022/04/28 04:12:31;;;;;;;;;;;4.80;99.90;;;;;;5133321;27;19962;-75
2022/04/28 04:14:57;;;;;;;;;;;4.80;99.90;;;;;;5134018;27;19907;-74
2022/04/28 04:17:23;;;;;;;;;;;4.80;99.90;;;;;;5133294;27;19908;-74
2022/04/28 04:19:48;;;;;;;;;;;4.90;99.90;;;;;;5133972;28;20018;-74
2022/04/28 04:22:14;;;;;;;;;;;5.00;99.90;;;;;;5133176;27;19907;-74
2022/04/28 04:24:42;;;;;;;;;;;5.00;99.90;;;;;;5133443;28;19993;-74
2022/04/28 04:27:08;;;;;;;;;;;5.00;99.90;;;;;;5133773;28;19919;-74
2022/04/28 04:29:33;;;;;;;;;;;5.00;99.90;;;;;;5132999;28;19912;-74
2022/04/28 04:32:17;;;;;;;;;;;4.90;99.90;;;;;;5133586;28;19915;-74
2022/04/28 04:34:43;;;;;;;;;;;5.00;99.90;;;;;;5134000;28;19907;-74
2022/04/28 04:37:09;;;;;;;;;;;5.00;99.90;;;;;;5133321;28;19912;-74
2022/04/28 04:39:34;;;;;;;;;;;5.00;99.90;;;;;;5133201;28;19918;-74
2022/04/28 04:42:00;;;;;;;;;;;4.90;99.90;;;;;;5133606;28;19998;-74
2022/04/28 04:44:25;;;;;;;;;;;4.90;99.90;;;;;;5114672;28;19912;-74
2022/04/28 04:46:51;;;;;;;;;;;4.90;99.90;;;;;;5133566;28;19911;-74
2022/04/28 04:49:17;;;;;;;;;;;4.90;99.90;;;;;;5133292;28;19915;-74
2022/04/28 04:51:43;;;;;;;;;;;4.90;99.90;;;;;;5133480;28;20364;-74
2022/04/28 04:54:09;;;;;;;;;;;4.90;99.90;;;;;;5133486;28;19915;-74
2022/04/28 04:56:36;;;;;;;;;;;4.80;99.90;;;;;;5133146;27;19934;-74
2022/04/28 04:59:02;;;;;;;;;;;4.80;99.90;;;;;;5133445;28;19916;-74
2022/04/28 05:01:28;;;;;;;;;;;4.80;99.90;;;;;;5132768;28;19908;-74
2022/04/28 05:03:53;;;;;;;;;;;4.90;99.90;;;;;;5133475;28;20344;-74
2022/04/28 05:06:19;;;;;;;;;;;4.80;99.90;;;;;;5132770;28;20430;-74
2022/04/28 05:08:44;;;;;;;;;;;4.80;99.90;;;;;;5133086;28;19916;-74
2022/04/28 05:11:10;;;;;;;;;;;4.70;99.90;;;;;;5133116;28;19919;-74
2022/04/28 05:13:36;;;;;;;;;;;4.70;99.90;;;;;;5132761;28;19915;-74
2022/04/28 05:16:01;;;;;;;;;;;4.80;99.90;;;;;;5133103;28;19915;-74
2022/04/28 05:18:27;;;;;;;;;;;4.70;99.90;;;;;;5132685;28;19911;-74
2022/04/28 05:20:53;;;;;;;;;;;4.70;99.90;;;;;;5133322;28;19914;-74
2022/04/28 05:23:18;;;;;;;;;;;4.80;99.90;;;;;;5133119;28;19908;-74
2022/04/28 05:25:44;;;;;;;;;;;4.80;99.90;;;;;;5114471;28;19907;-75
2022/04/28 05:28:10;;;;;;;;;;;4.80;99.90;;;;;;5133149;28;20259;-74
2022/04/28 05:30:35;;;;;;;;;;;4.90;99.90;;;;;;5132347;28;19938;-74
2022/04/28 05:33:01;;;;;;;;;;;4.90;99.90;;;;;;5132768;28;19907;-74
2022/04/28 05:35:27;;;;;;;;;;;4.90;99.90;;;;;;5134019;27;19963;-75
2022/04/28 05:37:53;;;;;;;;;;;4.90;99.90;;;;;;5136677;27;19915;-74
2022/04/28 05:40:19;;;;;;;;;;;5.00;99.90;;;;;;5136316;27;19908;-74
2022/04/28 05:45:47;;;;;;;;;;;5.00;99.90;;;;;;5135671;27;19966;-74
2022/04/28 05:48:14;;;;;;;;;;;5.10;99.90;;;;;;5136161;27;19955;-74
2022/04/28 05:50:40;;;;;;;;;;;5.10;99.90;;;;;;5135877;27;20006;-74
2022/04/28 05:53:06;;;;;;;;;;;5.20;99.90;;;;;;5136274;27;19926;-74
2022/04/28 05:55:31;;;;;;;;;;;5.30;99.90;;;;;;5135479;27;19907;-73
2022/04/28 05:58:00;;;;;;;;;;;5.40;99.90;;;;;;5136411;27;19907;-74
2022/04/28 06:00:26;;;;;;;;;;;5.40;99.90;;;;;;5135531;27;19918;-74
2022/04/28 06:02:52;;;;;;;;;;;5.40;99.90;;;;;;5136149;27;19976;-74
2022/04/28 06:05:18;;;;;;;;;;;5.40;99.90;;;;;;5135859;27;20386;-74
2022/04/28 06:07:43;;;;;;;;;;;5.40;99.90;;;;;;5135446;27;19915;-74
2022/04/28 06:10:09;;;;;;;;;;;5.40;99.90;;;;;;5135977;27;20364;-74
2022/04/28 06:12:34;;;;;;;;;;;5.50;99.90;;;;;;5135239;27;19947;-74
2022/04/28 06:15:00;;;;;;;;;;;5.50;99.90;;;;;;5135863;27;19914;-74
2022/04/28 06:17:26;;;;;;;;;;;5.60;99.90;;;;;;5135277;27;19914;-74
2022/04/28 06:19:51;;;;;;;;;;;5.80;99.90;;;;;;5135739;27;19912;-74
2022/04/28 06:22:17;;;;;;;;;;;6.00;99.90;;;;;;5136003;27;20264;-74
2022/04/28 06:24:42;;;;;;;;;;;6.10;99.90;;;;;;5135034;27;20031;-74
2022/04/28 06:27:08;;;;;;;;;;;6.20;99.90;;;;;;5135529;27;19911;-74
2022/04/28 06:29:34;;;;;;;;;;;6.30;99.90;;;;;;5134844;27;19916;-74
2022/04/28 06:31:59;;;;;;;;;;;6.40;99.90;;;;;;5135661;27;19908;-74
2022/04/28 06:34:25;;;;;;;;;;;6.40;99.90;;;;;;5135126;27;20005;-74
2022/04/28 06:36:50;;;;;;;;;;;6.50;99.90;;;;;;5135177;27;19912;-74
2022/04/28 06:39:16;;;;;;;;;;;6.60;99.90;;;;;;5135279;27;19915;-74
2022/04/28 06:41:41;;;;;;;;;;;6.80;99.90;;;;;;5134822;27;19908;-74
2022/04/28 06:44:07;;;;;;;;;;;6.70;99.90;;;;;;5135296;27;20334;-74
2022/04/28 06:46:32;;;;;;;;;;;6.80;99.90;;;;;;5134244;27;20298;-75
2022/04/28 06:48:58;;;;;;;;;;;6.90;99.90;;;;;;5135301;27;20024;-74
2022/04/28 06:51:24;;;;;;;;;;;7.00;99.90;;;;;;5135244;27;19998;-75
2022/04/28 06:53:49;;;;;;;;;;;7.10;99.90;;;;;;5134698;27;19907;-74
2022/04/28 06:56:15;;;;;;;;;;;7.10;99.90;;;;;;5134882;27;19964;-75
2022/04/28 06:58:40;;;;;;;;;;;7.10;99.90;;;;;;5134174;27;19930;-75
2022/04/28 07:01:06;;;;;;;;;;;7.20;99.90;;;;;;5134946;27;20027;-75
2022/04/28 07:03:32;;;;;;;;;;;7.20;99.90;;;;;;5134490;27;20280;-74
2022/04/28 07:05:57;;;;;;;;;;;7.20;99.90;;;;;;5134959;27;19907;-74
2022/04/28 07:08:23;;;;;;;;;;;7.30;99.90;;;;;;5134538;27;19934;-75
2022/04/28 07:10:49;;;;;;;;;;;7.40;99.90;;;;;;5134226;27;19963;-74
2022/04/28 07:13:14;;;;;;;;;;;7.40;99.90;;;;;;5135221;27;20340;-75
2022/04/28 07:15:40;;;;;;;;;;;7.60;99.90;;;;;;5134208;27;19997;-75
2022/04/28 07:18:06;;;;;;;;;;;7.70;99.90;;;;;;5116243;27;20010;-74
2022/04/28 07:20:32;;;;;;;;;;;7.80;99.90;;;;;;5133697;27;19919;-74
2022/04/28 07:22:59;;;;;;;;;;;7.90;99.90;;;;;;5134833;27;19908;-74
2022/04/28 07:25:28;;;;;;;;;;;8.00;99.90;;;;;;5134539;27;19908;-74
2022/04/28 07:27:55;;;;;;;;;;;8.10;99.90;;;;;;5134292;27;19964;-74
2022/04/28 07:30:21;;;;;;;;;;;8.20;99.90;;;;;;5134605;27;19911;-74
2022/04/28 07:32:47;;;;;;;;;;;8.30;99.90;;;;;;5133728;27;20026;-74
2022/04/28 07:35:13;;;;;;;;;;;8.40;99.90;;;;;;5134355;27;19960;-74
2022/04/28 07:37:39;;;;;;;;;;;8.50;99.90;;;;;;5133597;27;19911;-75
2022/04/28 07:40:05;;;;;;;;;;;8.60;99.90;;;;;;5134053;27;19908;-75
2022/04/28 07:42:30;;;;;;;;;;;8.70;99.90;;;;;;5133574;27;20392;-75
2022/04/28 07:44:56;;;;;;;;;;;8.90;99.90;;;;;;5134083;27;19933;-76
2022/04/28 07:47:22;;;;;;;;;;;9.00;99.90;;;;;;5133921;27;19960;-75
2022/04/28 07:49:48;;;;;;;;;;;9.10;99.90;;;;;;5133188;27;19912;-76
2022/04/28 07:52:13;;;;;;;;;;;9.00;99.90;;;;;;5135362;27;20241;-76
2022/04/28 07:54:39;;;;;;;;;;;9.10;99.90;;;;;;5133883;27;19907;-74
2022/04/28 07:57:04;;;;;;;;;;;9.20;99.90;;;;;;5133263;27;19919;-75
2022/04/28 07:59:30;;;;;;;;;;;9.20;99.90;;;;;;5133361;27;19961;-74
2022/04/28 08:01:55;;;;;;;;;;;9.40;99.90;;;;;;5133484;27;19961;-75
2022/04/28 08:04:21;;;;;;;;;;;9.40;99.90;;;;;;5133984;27;20009;-75
2022/04/28 08:06:47;;;;;;;;;;;9.50;99.90;;;;;;5133088;27;19956;-74
2022/04/28 08:09:12;;;;;;;;;;;9.60;99.90;;;;;;5133086;27;19912;-75
2022/04/28 08:11:42;;;;;;;;;;;9.60;99.90;;;;;;5132846;27;19947;-74
2022/04/28 08:14:07;;;;;;;;;;;9.60;99.90;;;;;;5132896;27;20013;-74
2022/04/28 08:16:33;;;;;;;;;;;9.70;99.90;;;;;;5132563;27;19951;-75
2022/04/28 08:18:58;;;;;;;;;;;9.80;99.90;;;;;;5132783;27;20010;-75
2022/04/28 08:21:24;;;;;;;;;;;9.90;99.90;;;;;;5128831;28;19911;-74
2022/04/28 08:23:50;;;;;;;;;;;10.00;99.90;;;;;;5132173;28;19907;-75
2022/04/28 08:26:15;;;;;;;;;;;10.10;99.90;;;;;;5132067;28;19960;-74
2022/04/28 08:28:41;;;;;;;;;;;10.20;99.90;;;;;;5132452;28;19956;-75
2022/04/28 08:31:06;;;;;;;;;;;10.30;99.90;;;;;;5133444;28;19907;-74
2022/04/28 08:33:32;;;;;;;;;;;10.40;99.90;;;;;;5132880;28;20015;-74
2022/04/28 08:35:57;;;;;;;;;;;10.50;99.90;;;;;;5133169;28;19915;-74
2022/04/28 08:38:24;;;;;;;;;;;10.50;99.90;;;;;;5133670;28;19908;-74
2022/04/28 08:40:51;;;;;;;;;;;10.60;99.90;;;;;;5132483;28;19934;-73
2022/04/28 08:43:17;;;;;;;;;;;10.70;99.90;;;;;;5133446;28;19908;-74
2022/04/28 08:48:35;;;;;;;;;;;11.00;99.90;;;;;;5132099;28;19964;-74
2022/04/28 08:51:01;;;;;;;;;;;11.00;99.90;;;;;;5132721;28;19915;-74
2022/04/28 08:53:26;;;;;;;;;;;11.10;99.90;;;;;;5132892;28;20339;-74
2022/04/28 08:55:57;;;;;;;;;;;11.30;99.90;;;;;;5131761;28;19967;-75
2022/04/28 08:58:23;;;;;;;;;;;11.40;99.90;;;;;;5132707;28;19994;-74
2022/04/28 09:00:48;;;;;;;;;;;11.50;99.90;;;;;;5132168;28;19969;-74
2022/04/28 09:03:14;;;;;;;;;;;11.50;99.90;;;;;;5132800;28;19946;-75
2022/04/28 09:05:40;;;;;;;;;;;11.50;99.90;;;;;;5132270;28;20379;-75
2022/04/28 09:08:06;;;;;;;;;;;11.60;99.90;;;;;;5132242;27;20420;-75
2022/04/28 09:10:32;;;;;;;;;;;11.70;99.90;;;;;;5136162;27;19911;-75
2022/04/28 09:12:58;;;;;;;;;;;11.70;99.90;;;;;;5136363;27;19908;-74
2022/04/28 09:15:23;;;;;;;;;;;11.80;99.90;;;;;;5136396;27;20686;-74
2022/04/28 09:17:49;;;;;;;;;;;11.80;99.90;;;;;;5135949;27;20276;-74
2022/04/28 09:20:15;;;;;;;;;;;11.90;99.90;;;;;;5136623;27;19907;-75
2022/04/28 09:22:42;;;;;;;;;;;11.90;99.90;;;;;;5136113;27;19908;-75
2022/04/28 09:25:08;;;;;;;;;;;11.90;99.90;;;;;;5136229;27;19915;-75
2022/04/28 09:27:34;;;;;;;;;;;11.90;99.90;;;;;;5136109;27;20439;-75
2022/04/28 09:30:00;;;;;;;;;;;11.90;99.90;;;;;;5136015;27;19972;-75
2022/04/28 09:32:26;;;;;;;;;;;12.00;99.90;;;;;;5136063;27;20380;-74
2022/04/28 09:34:53;;;;;;;;;;;11.90;99.90;;;;;;5135846;27;19914;-74
2022/04/28 09:37:20;;;;;;;;;;;11.90;99.90;;;;;;5136157;27;19914;-75
2022/04/28 09:42:39;;;;;;;;;;;11.80;99.90;;;;;;5135404;27;19936;-75
2022/04/28 09:45:05;;;;;;;;;;;11.80;99.90;;;;;;5134977;27;20076;-75
2022/04/28 09:47:32;;;;;;;;;;;11.90;99.90;;;;;;5134606;27;20346;-74
2022/04/28 09:49:57;;;;;;;;;;;12.00;99.90;;;;;;5116188;27;19932;-74
2022/04/28 09:52:26;;;;;;;;;;;12.10;99.90;;;;;;5135124;27;20314;-75
2022/04/28 09:54:56;;;;;;;;;;;12.10;99.90;;;;;;5134934;27;20384;-74
2022/04/28 09:57:22;;;;;;;;;;;12.10;99.90;;;;;;5135762;27;19930;-74
2022/04/28 09:59:55;;;;;;;;;;;12.10;99.90;;;;;;5134454;27;19907;-74
2022/04/28 10:02:22;;;;;;;;;;;12.10;99.90;;;;;;5135408;27;19912;-74
2022/04/28 10:04:48;;;;;;;;;;;12.10;99.90;;;;;;5134462;27;20281;-75
2022/04/28 10:07:14;;;;;;;;;;;12.00;99.90;;;;;;5134790;27;19915;-74
2022/04/28 10:09:40;;;;;;;;;;;12.10;99.90;;;;;;5134131;27;19911;-75
2022/04/28 10:12:06;;;;;;;;;;;11.90;99.90;;;;;;5134831;27;19953;-74
2022/04/28 10:14:33;;;;;;;;;;;11.80;99.90;;;;;;5135188;27;19929;-75
2022/04/28 10:17:00;;;;;;;;;;;11.80;99.90;;;;;;5135258;27;19911;-74
2022/04/28 10:19:31;;;;;;;;;;;11.80;99.90;;;;;;5135688;27;20006;-75
2022/04/28 10:22:02;;;;;;;;;;;11.60;99.90;;;;;;5134237;27;20589;-75
2022/04/28 10:32:56;;;;;;;;;;;11.90;99.90;;;;;;5134958;27;19914;-75
2022/04/28 10:35:40;;;;;;;;;;;12.10;99.90;;;;;;5135095;27;20044;-75
2022/04/28 10:38:09;;;;;;;;;;;12.20;99.90;;;;;;5135076;27;20393;-75
2022/04/28 10:40:39;;;;;;;;;;;12.30;99.90;;;;;;5134946;27;19907;-76
2022/04/28 10:43:17;;;;;;;;;;;12.40;99.90;;;;;;5135245;27;19943;-76
2022/04/28 10:45:44;;;;;;;;;;;12.50;99.90;;;;;;5134652;27;20339;-76
2022/04/28 10:48:14;;;;;;;;;;;12.70;99.90;;;;;;5135190;27;19915;-76
2022/04/28 10:50:40;;;;;;;;;;;12.80;99.90;;;;;;5134856;27;19919;-75
2022/04/28 10:53:06;;;;;;;;;;;12.70;99.90;;;;;;5135125;27;19911;-75
2022/04/28 10:55:40;;;;;;;;;;;12.90;99.90;;;;;;5135181;27;19914;-75
2022/04/28 10:58:17;;;;;;;;;;;13.10;99.90;;;;;;5134849;27;19929;-75
2022/04/28 11:00:50;;;;;;;;;;;13.20;99.90;;;;;;5134429;27;19907;-76
2022/04/28 11:03:16;;;;;;;;;;;13.30;99.90;;;;;;5116495;27;19998;-76
2022/04/28 11:05:42;;;;;;;;;;;13.30;99.90;;;;;;5134365;27;19935;-75
2022/04/28 11:08:09;;;;;;;;;;;13.30;99.90;;;;;;5134222;27;19911;-76
2022/04/28 11:10:54;;;;;;;;;;;13.30;99.90;;;;;;5133864;27;19946;-75
2022/04/28 11:13:20;;;;;;;;;;;13.20;99.90;;;;;;5133974;27;19914;-75
2022/04/28 11:15:46;;;;;;;;;;;13.10;99.90;;;;;;5133318;27;19911;-75
2022/04/28 11:18:12;;;;;;;;;;;13.00;99.90;;;;;;5134230;27;20253;-74
2022/04/28 11:20:38;;;;;;;;;;;12.80;99.90;;;;;;5115940;27;20336;-75
2022/04/28 11:23:04;;;;;;;;;;;12.80;99.90;;;;;;5133902;27;19960;-75
2022/04/28 11:25:29;;;;;;;;;;;12.70;99.90;;;;;;5133531;27;19957;-75
2022/04/28 11:27:56;;;;;;;;;;;12.70;99.90;;;;;;5136255;27;19926;-75
2022/04/28 11:30:25;;;;;;;;;;;12.60;99.90;;;;;;5145859;27;20371;-75
2022/04/28 11:32:57;;;;;;;;;;;12.60;99.90;;;;;;5139732;27;19907;-75
2022/04/28 11:35:28;;;;;;;;;;;12.60;99.90;;;;;;5150930;27;19907;-75
2022/04/28 11:37:54;;;;;;;;;;;12.70;99.90;;;;;;5139528;27;19965;-75
2022/04/28 11:40:22;;;;;;;;;;;12.50;99.90;;;;;;5144881;27;20003;-75
2022/04/28 11:42:54;;;;;;;;;;;12.40;99.90;;;;;;5146896;27;19908;-75
2022/04/28 11:45:21;;;;;;;;;;;12.40;99.90;;;;;;5137374;27;19946;-75
2022/04/28 11:47:46;;;;;;;;;;;12.30;99.90;;;;;;5130419;27;19912;-75
2022/04/28 11:50:19;;;;;;;;;;;12.30;99.90;;;;;;5142226;27;20000;-75
2022/04/28 11:52:45;;;;;;;;;;;12.10;99.90;;;;;;5138515;27;19908;-75
2022/04/28 11:55:12;;;;;;;;;;;12.20;99.90;;;;;;5132851;27;19915;-75
2022/04/28 11:57:39;;;;;;;;;;;12.30;99.90;;;;;;5118861;27;19926;-75
2022/04/28 12:00:09;;;;;;;;;;;12.30;99.90;;;;;;5145939;27;20010;-75
2022/04/28 12:02:36;;;;;;;;;;;12.20;99.90;;;;;;5126906;27;19994;-75
2022/04/28 12:05:15;;;;;;;;;;;12.40;99.90;;;;;;5138123;27;19935;-75
2022/04/28 12:07:42;;;;;;;;;;;12.50;99.90;;;;;;5137506;27;19912;-75
2022/04/28 12:15:37;;;;;;;;;;;12.90;99.90;;;;;;5136616;27;19914;-75
2022/04/28 12:20:58;;;;;;;;;;;12.70;99.90;;;;;;5140764;27;19918;-75
2022/04/28 12:23:28;;;;;;;;;;;12.50;99.90;;;;;;5150078;27;19907;-75
2022/04/28 12:25:56;;;;;;;;;;;12.40;99.90;;;;;;5138267;27;19922;-75
2022/04/28 12:28:28;;;;;;;;;;;12.50;99.90;;;;;;5143869;27;19922;-75
2022/04/28 12:30:53;;;;;;;;;;;12.50;99.90;;;;;;5147236;27;19918;-76
2022/04/28 12:33:19;;;;;;;;;;;12.40;99.90;;;;;;5136481;27;19911;-75
2022/04/28 12:35:47;;;;;;;;;;;12.50;99.90;;;;;;5130077;27;19918;-75
2022/04/28 12:38:23;;;;;;;;;;;12.50;99.90;;;;;;5150290;27;19911;-75
2022/04/28 12:40:48;;;;;;;;;;;12.60;99.90;;;;;;5153438;27;19907;-75
2022/04/28 12:43:33;;;;;;;;;;;12.40;99.90;;;;;;5154215;27;20271;-75
2022/04/28 12:45:59;;;;;;;;;;;12.30;99.90;;;;;;5137332;27;19952;-75
2022/04/28 12:48:30;;;;;;;;;;;12.40;99.90;;;;;;5137279;27;20306;-75
2022/04/28 12:51:13;;;;;;;;;;;12.50;99.90;;;;;;5136038;27;19915;-75
2022/04/28 12:53:39;;;;;;;;;;;12.70;99.90;;;;;;5137121;27;19915;-75
2022/04/28 12:56:09;;;;;;;;;;;12.70;99.90;;;;;;5136553;27;19919;-75
2022/04/28 12:58:43;;;;;;;;;;;12.80;99.90;;;;;;5136860;27;19907;-75
2022/04/28 13:01:13;;;;;;;;;;;12.70;99.90;;;;;;5136629;27;19997;-75
2022/04/28 13:03:40;;;;;;;;;;;12.80;99.90;;;;;;5137286;27;19907;-76
2022/04/28 13:06:06;;;;;;;;;;;12.70;99.90;;;;;;5136182;27;19966;-75
2022/04/28 13:08:32;;;;;;;;;;;12.80;99.90;;;;;;5136711;27;20014;-75
2022/04/28 13:10:58;;;;;;;;;;;12.90;99.90;;;;;;5135900;27;20381;-75
2022/04/28 13:13:24;;;;;;;;;;;12.80;99.90;;;;;;5136694;27;19998;-75
2022/04/28 13:15:49;;;;;;;;;;;13.00;99.90;;;;;;5117900;27;19961;-75
2022/04/28 13:18:15;;;;;;;;;;;13.00;99.90;;;;;;5136912;27;20271;-75
2022/04/28 13:20:40;;;;;;;;;;;13.10;99.90;;;;;;5137273;27;20045;-75
2022/04/28 13:23:06;;;;;;;;;;;13.00;99.90;;;;;;5133865;27;19915;-76
2022/04/28 13:25:31;;;;;;;;;;;13.00;99.90;;;;;;5135360;27;19928;-75
2022/04/28 13:27:57;;;;;;;;;;;13.10;99.90;;;;;;5136158;27;19911;-75
2022/04/28 13:30:22;;;;;;;;;;;13.00;99.90;;;;;;5137181;27;19916;-75
2022/04/28 13:32:48;;;;;;;;;;;12.90;99.90;;;;;;5136353;27;19907;-75
2022/04/28 13:35:14;;;;;;;;;;;12.70;99.90;;;;;;5136096;27;20243;-75
2022/04/28 13:37:40;;;;;;;;;;;12.60;99.90;;;;;;5136601;27;19908;-75
2022/04/28 13:40:06;;;;;;;;;;;12.60;99.90;;;;;;5135911;27;19946;-75
2022/04/28 13:42:32;;;;;;;;;;;12.60;99.90;;;;;;5136383;27;19907;-75
2022/04/28 13:44:57;;;;;;;;;;;12.70;99.90;;;;;;5135679;27;20363;-75
2022/04/28 13:47:25;;;;;;;;;;;12.90;99.90;;;;;;5117685;27;19934;-76
2022/04/28 13:49:50;;;;;;;;;;;12.60;99.90;;;;;;5136093;27;19988;-76
2022/04/28 13:52:16;;;;;;;;;;;12.90;99.90;;;;;;5136410;27;20348;-75
2022/04/28 13:54:41;;;;;;;;;;;12.90;99.90;;;;;;5135348;27;19907;-76
2022/04/28 13:57:08;;;;;;;;;;;12.90;99.90;;;;;;5134749;27;19919;-76
2022/04/28 13:59:33;;;;;;;;;;;12.60;99.90;;;;;;5135873;27;19991;-76
2022/04/28 14:01:59;;;;;;;;;;;12.80;99.90;;;;;;5135873;27;20321;-76
2022/04/28 14:04:25;;;;;;;;;;;12.80;99.90;;;;;;5136485;27;19922;-75
2022/04/28 14:06:54;;;;;;;;;;;12.90;99.90;;;;;;5135686;27;20006;-76
2022/04/28 14:09:20;;;;;;;;;;;12.90;99.90;;;;;;5135776;27;20014;-75
2022/04/28 14:11:46;;;;;;;;;;;13.00;99.90;;;;;;5135901;27;19934;-76
2022/04/28 14:14:12;;;;;;;;;;;13.10;99.90;;;;;;5135177;27;19908;-75
2022/04/28 14:16:37;;;;;;;;;;;12.70;99.90;;;;;;5135692;27;19973;-76
2022/04/28 14:19:03;;;;;;;;;;;12.60;99.90;;;;;;5135308;27;19907;-76
2022/04/28 14:21:31;;;;;;;;;;;12.70;99.90;;;;;;5117403;27;20387;-76
2022/04/28 14:23:57;;;;;;;;;;;12.70;99.90;;;;;;5135199;27;19907;-76
2022/04/28 14:26:23;;;;;;;;;;;12.70;99.90;;;;;;5135611;27;20006;-76
2022/04/28 14:28:48;;;;;;;;;;;12.70;99.90;;;;;;5135262;27;19922;-76
2022/04/28 14:31:14;;;;;;;;;;;12.90;99.90;;;;;;5135153;27;19907;-76
2022/04/28 14:33:40;;;;;;;;;;;12.80;99.90;;;;;;5135601;27;19908;-76
2022/04/28 14:36:05;;;;;;;;;;;12.70;99.90;;;;;;5134770;27;19911;-75
2022/04/28 14:38:31;;;;;;;;;;;12.80;99.90;;;;;;5135879;27;20333;-76
2022/04/28 14:40:57;;;;;;;;;;;13.00;99.90;;;;;;5135173;27;19908;-76
2022/04/28 14:43:22;;;;;;;;;;;13.10;99.90;;;;;;5135297;27;19994;-76
2022/04/28 14:45:48;;;;;;;;;;;13.20;99.90;;;;;;5116539;27;19930;-76
2022/04/28 14:48:16;;;;;;;;;;;13.20;99.90;;;;;;5134647;27;20450;-76
2022/04/28 14:53:29;;;;;;;;;;;13.30;99.90;;;;;;5134477;27;19914;-76
2022/04/28 14:55:54;;;;;;;;;;;13.30;99.90;;;;;;5134107;27;19923;-76
2022/04/28 14:58:20;;;;;;;;;;;13.00;99.90;;;;;;5116471;27;19908;-76